Latest Weather Observations for Coen Airport

IDQ60801

Issued at 5:32 pm EST Thursday 7 May 2015 (issued every 30 minutes, with the page automatically refreshed every 10 minutes)

About weather observations | Map of weather stations | Latest weather observations for QLD | Other Formats
Station Details ID: 027073 Name: COEN AIRPORT Lat: -13.76 Lon: 143.12 Height: 159.3 m
Data from the previous 72 hours. | See also: Recent months at Coen Airport
Date/Time
EST
Temp
°C
App
Temp
°C
Dew
Point
Rel
Hum
%
Delta-T
°C
Wind Press
QNH
hPa
Press
MSL
hPa
Rain
since 9 am
mm
Dir
 
Spd
km/h
Gust
km/h
Spd
kts
Gust
kts
07/05:30pm 28.0 28.0 17.2 52 6.8 SE 13 17 7 9 1012.0 - 0.0
07/05:00pm 29.0 29.1 17.5 49 7.3 SE 13 20 7 11 1011.7 - 0.0
07/04:30pm 29.3 29.4 17.5 49 7.5 ESE 13 20 7 11 1011.5 - 0.0
07/04:00pm 30.1 30.2 17.5 46 8.0 ESE 13 22 7 12 1011.5 - 0.0
07/03:30pm 30.2 30.0 16.6 44 8.6 E 13 20 7 11 1011.6 - 0.0
07/03:00pm 29.8 26.7 14.4 39 9.4 ESE 24 33 13 18 1011.7 1010.9 0.0
07/02:30pm 30.1 28.0 14.6 39 9.5 E 19 26 10 14 1011.9 - 0.0
07/02:00pm 30.5 29.1 14.6 38 9.7 E 15 35 8 19 1012.4 - 0.0
07/01:30pm 30.5 29.1 14.6 38 9.7 E 15 24 8 13 1012.8 - 0.0
07/01:00pm 30.5 27.4 14.6 38 9.7 ESE 24 39 13 21 1013.3 - 0.0
07/12:30pm 30.3 28.5 14.4 38 9.7 ESE 17 30 9 16 1013.5 - 0.0
07/12:00pm 29.8 29.0 16.2 43 8.5 E 15 26 8 14 1014.1 1013.3 0.0
07/11:30am 29.5 28.4 16.3 45 8.3 E 17 26 9 14 1014.5 - 0.0
07/11:00am 29.3 28.4 16.8 47 7.9 E 17 24 9 13 1014.8 - 0.0
07/10:30am 28.6 27.4 16.2 47 7.7 ESE 17 24 9 13 1015.1 - 0.0
07/10:00am 27.1 28.1 17.8 56 5.9 E 9 20 5 11 1015.2 - 0.0
07/09:30am 24.6 26.9 19.4 73 3.4 SW 6 11 3 6 1015.1 - 0.0
07/09:00am 23.2 25.4 19.1 78 2.6 W 6 9 3 5 1015.0 1014.2 0.0
07/08:30am 22.0 24.1 19.0 83 1.9 S 6 7 3 4 1014.6 - 0.0
07/08:00am 20.1 21.7 18.2 89 1.2 SSW 7 9 4 5 1014.6 - 0.0
07/07:30am 19.0 20.5 17.5 91 0.9 S 6 9 3 5 1014.2 - 0.0
07/07:00am 17.9 19.2 17.1 95 0.5 S 6 9 3 5 1013.9 - 0.0
07/06:30am 17.4 18.8 16.4 94 0.6 S 4 7 2 4 1013.5 - 0.0
07/06:00am 17.3 19.4 16.2 93 0.7 CALM 0 7 0 4 1013.2 1012.4 0.0
07/05:30am 17.4 19.1 16.3 93 0.7 SW 2 7 1 4 1013.0 - 0.0
07/05:00am 17.8 20.1 16.7 93 0.7 CALM 0 0 0 0 1012.9 - 0.0
07/04:30am 18.2 20.4 16.5 90 1.0 CALM 0 0 0 0 1013.1 - 0.0
07/04:00am 18.4 20.2 16.4 88 1.2 WSW 2 7 1 4 1013.2 - 0.0
07/03:30am 19.2 21.3 17.3 89 1.2 NNE 2 7 1 4 1013.2 - 0.0
07/03:00am 19.1 20.4 17.1 88 1.2 W 6 7 3 4 1013.3 1012.5 0.0
07/02:30am 19.5 21.8 16.7 84 1.7 CALM 0 0 0 0 1013.2 - 0.0
07/02:00am 22.0 23.4 17.4 75 2.9 E 6 9 3 5 1013.3 - 0.0
07/01:30am 22.5 23.5 17.8 75 2.9 E 9 13 5 7 1013.4 - 0.0
07/01:00am 21.9 23.3 17.9 78 2.5 E 7 13 4 7 1013.5 - 0.0
07/12:30am 19.4 22.0 17.4 88 1.2 CALM 0 6 0 3 1013.7 - 0.0
07/12:00am 19.1 21.2 17.2 89 1.2 W 2 11 1 6 1013.9 1013.1 0.0
 
Date/Time
EST
Temp
°C
App
Temp
°C
Dew
Point
Rel
Hum
%
Delta-T
°C
Wind Press
QNH
hPa
Press
MSL
hPa
Rain
since 9 am
mm
Dir
 
Spd
km/h
Gust
km/h
Spd
kts
Gust
kts
06/11:30pm 19.6 21.8 17.4 87 1.4 NNE 2 9 1 5 1014.1 - 0.0
06/11:00pm 20.7 23.5 17.9 84 1.7 CALM 0 4 0 2 1014.2 - 0.0
06/10:30pm 21.2 22.9 18.0 82 2.0 N 6 7 3 4 1014.2 - 0.0
06/10:00pm 21.7 24.6 18.1 80 2.3 CALM 0 4 0 2 1014.0 - 0.0
06/09:30pm 21.5 23.0 18.1 81 2.1 W 7 9 4 5 1013.9 - 0.0
06/09:00pm 21.4 22.9 17.6 79 2.4 WNW 6 9 3 5 1013.5 1012.7 0.0
06/08:30pm 22.6 23.8 17.3 72 3.3 NE 7 11 4 6 1013.2 - 0.0
06/08:00pm 23.0 24.7 17.2 70 3.6 NNE 4 9 2 5 1012.8 - 0.0
06/07:30pm 23.4 24.9 17.6 70 3.6 NE 6 11 3 6 1012.3 - 0.0
06/07:00pm 23.5 25.2 18.6 74 3.1 NNE 7 13 4 7 1012.0 - 0.0
06/06:30pm 24.4 26.0 18.3 69 3.9 NE 7 11 4 6 1011.6 - 0.0
06/06:00pm 25.5 26.1 18.7 66 4.4 NE 13 20 7 11 1011.1 1010.3 0.0
06/05:30pm 27.6 27.9 18.0 55 6.1 E 13 24 7 13 1010.6 - 0.0
06/05:00pm 28.4 29.5 18.8 56 6.2 ENE 11 17 6 9 1010.3 - 0.0
06/04:30pm 29.4 29.0 17.2 47 7.7 ESE 15 20 8 11 1010.2 - 0.0
06/04:00pm 29.5 29.8 17.0 47 7.9 ESE 11 17 6 9 1010.1 - 0.0
06/03:30pm 29.6 29.1 16.8 46 8.1 SE 15 22 8 12 1010.1 - 0.0
06/03:00pm 30.1 29.0 17.2 46 8.2 SE 19 26 10 14 1010.3 1009.5 0.0
06/02:30pm 30.3 30.2 18.7 50 7.5 SE 17 24 9 13 1010.4 - 0.0
06/02:00pm 30.0 29.5 17.8 48 7.8 SE 17 26 9 14 1010.8 - 0.0
06/01:30pm 30.2 30.8 18.6 49 7.5 SE 13 20 7 11 1011.3 - 0.0
06/01:00pm 30.0 30.3 19.7 54 6.8 SE 17 24 9 13 1011.6 - 0.0
06/12:30pm 30.2 31.5 20.2 55 6.6 SE 13 26 7 14 1012.2 - 0.0
06/12:00pm 29.8 29.8 19.8 55 6.6 SE 19 22 10 12 1012.7 1011.9 0.0
06/11:30am 28.6 29.4 18.1 53 6.7 E 11 17 6 9 1013.3 - 0.0
06/11:00am 28.8 30.8 19.1 55 6.3 ENE 7 11 4 6 1013.7 - 0.0
06/10:30am 27.2 30.5 20.0 64 4.7 S 2 7 1 4 1014.2 - 0.0
06/10:00am 26.4 30.0 20.5 70 3.9 ESE 2 6 1 3 1014.4 - 0.0
06/09:30am 25.1 28.1 20.1 74 3.3 S 4 9 2 5 1014.4 - 0.0
06/09:00am 24.4 28.3 20.3 78 2.7 CALM 0 6 0 3 1014.2 1013.4 0.0
06/08:30am 23.9 27.8 20.4 81 2.3 CALM 0 6 0 3 1013.9 - 0.0
06/08:00am 22.4 26.5 20.7 90 1.1 CALM 0 0 0 0 1013.7 - 0.0
06/07:30am 20.1 23.2 19.4 96 0.4 SE 2 7 1 4 1013.7 - 0.0
06/07:00am 19.2 22.2 18.4 95 0.5 CALM 0 0 0 0 1013.3 - 0.0
06/06:30am 19.3 21.9 18.3 94 0.6 ESE 2 7 1 4 1012.6 - 0.0
06/06:00am 19.6 22.8 18.8 95 0.5 CALM 0 0 0 0 1012.3 1011.5 0.0
06/05:30am 19.6 22.0 18.8 95 0.5 SE 4 9 2 5 1012.1 - 0.0
06/05:00am 19.3 22.2 18.3 94 0.6 CALM 0 0 0 0 1012.0 - 0.0
06/04:30am 19.5 21.2 18.5 94 0.6 SE 7 9 4 5 1011.9 - 0.0
06/04:00am 19.7 22.8 18.7 94 0.6 CALM 0 7 0 4 1011.8 - 0.0
06/03:30am 20.1 23.4 19.1 94 0.6 CALM 0 0 0 0 1012.0 - 0.0
06/03:00am 19.9 23.0 18.7 93 0.8 CALM 0 0 0 0 1012.2 1011.4 0.0
06/02:30am 20.0 23.2 18.8 93 0.8 CALM 0 0 0 0 1012.3 - 0.0
06/02:00am 20.4 23.6 18.9 91 0.9 CALM 0 0 0 0 1012.4 - 0.0
06/01:30am 20.9 23.0 19.4 91 1.0 SSW 7 9 4 5 1012.6 - 0.0
06/01:00am 21.2 23.1 19.7 91 1.0 SSW 9 13 5 7 1012.7 - 0.0
06/12:30am 21.7 23.1 19.6 88 1.3 SW 11 15 6 8 1012.7 - 0.0
06/12:00am 22.8 24.8 20.0 84 1.8 NE 9 11 5 6 1012.4 1011.6 0.0
 
Date/Time
EST
Temp
°C
App
Temp
°C
Dew
Point
Rel
Hum
%
Delta-T
°C
Wind Press
QNH
hPa
Press
MSL
hPa
Rain
since 9 am
mm
Dir
 
Spd
km/h
Gust
km/h
Spd
kts
Gust
kts
05/11:30pm 22.7 24.8 20.2 86 1.6 NE 9 11 5 6 1012.4 - 0.0
05/11:00pm 21.8 25.5 19.9 89 1.2 CALM 0 0 0 0 1012.4 - 0.0
05/10:30pm 21.7 24.1 19.6 88 1.3 NNE 6 7 3 4 1012.2 - 0.0
05/10:00pm 21.9 24.1 19.6 87 1.5 NNE 7 11 4 6 1012.2 - 0.0
05/09:30pm 22.1 24.0 19.8 87 1.5 NNE 9 13 5 7 1012.2 - 0.0
05/09:00pm 22.1 23.9 19.6 86 1.6 NNE 9 13 5 7 1012.1 1011.3 0.0
05/08:30pm 22.4 23.8 19.6 84 1.8 NNE 11 13 6 7 1011.7 - 0.0
05/08:00pm 22.9 24.0 19.7 82 2.1 NNE 13 19 7 10 1011.2 - 0.0
05/07:30pm 23.2 24.5 19.4 79 2.4 NNE 11 17 6 9 1010.5 - 0.0
05/07:00pm 23.8 24.7 19.3 76 2.9 NNE 13 19 7 10 1010.2 - 0.0
05/06:30pm 24.4 25.4 19.5 74 3.2 NNE 13 17 7 9 1010.0 - 0.0
05/06:00pm 25.4 25.6 19.3 69 3.9 NNE 17 24 9 13 1009.8 1009.0 0.0
05/05:30pm 26.7 27.0 19.6 65 4.6 NNE 17 24 9 13 1009.6 - 0.0
05/05:00pm 27.7 27.6 19.5 61 5.4 NNE 19 26 10 14 1009.5 - 0.0
05/04:30pm 28.4 28.7 19.6 59 5.8 NE 17 28 9 15 1009.3 - 0.0
05/04:00pm 27.5 27.4 19.6 62 5.2 NNE 19 28 10 15 1009.2 - 0.0
05/03:30pm 29.3 29.2 19.6 56 6.4 NNE 19 28 10 15 1009.4 - 0.0
05/03:00pm 29.1 28.9 19.4 55 6.4 NE 19 26 10 14 1009.6 1008.8 0.0
05/02:30pm 30.4 31.0 20.3 54 6.7 NNE 17 24 9 13 1009.8 - 0.0
05/02:00pm 29.4 30.6 20.0 57 6.2 NNE 13 19 7 10 1010.2 - 0.0
05/01:30pm 29.8 31.8 19.2 53 6.9 ENE 7 11 4 6 1010.6 - 0.0
05/01:00pm 29.9 32.4 21.0 59 6.0 E 9 15 5 8 1011.2 - 0.0
05/12:30pm 28.5 30.2 20.2 60 5.5 ENE 11 20 6 11 1011.7 - 0.0
05/12:00pm 28.7 30.7 19.9 59 5.8 ENE 9 17 5 9 1012.1 1011.3 0.0
05/11:30am 29.2 30.0 19.8 57 6.2 N 15 22 8 12 1012.4 - 0.0
05/11:00am 29.2 31.5 19.5 56 6.4 ENE 6 13 3 7 1013.0 - 0.0
05/10:30am 28.1 30.7 20.1 62 5.3 SSE 6 11 3 6 1013.4 - 0.0
05/10:00am 27.5 30.3 20.8 67 4.5 SE 7 13 4 7 1013.6 - 0.0
05/09:30am 26.3 29.0 20.2 69 4.0 SE 6 9 3 5 1013.7 - 0.0
05/09:00am 25.2 28.2 20.0 73 3.4 E 4 7 2 4 1013.4 1012.6 0.0
05/08:30am 23.7 27.5 20.2 81 2.3 CALM 0 0 0 0 1013.2 - 0.0
05/08:00am 21.7 25.2 19.6 88 1.3 CALM 0 0 0 0 1013.1 - 0.0
05/07:30am 20.3 23.7 19.3 94 0.6 CALM 0 0 0 0 1012.7 - 0.0
05/07:00am 19.4 21.1 18.6 95 0.5 SE 7 9 4 5 1012.4 - 0.0
05/06:30am 19.2 21.0 18.4 95 0.5 SE 6 7 3 4 1012.1 - 0.0
05/06:00am 19.2 20.5 18.4 95 0.5 SE 9 9 5 5 1011.9 1011.1 0.0
05/05:30am 19.2 20.8 18.2 94 0.6 SSE 7 9 4 5 1011.9 - 0.0
05/05:00am 19.2 20.8 18.2 94 0.6 S 7 9 4 5 1011.8 - 0.0
05/04:30am 19.0 20.6 17.8 93 0.7 S 6 7 3 4 1011.9 - 0.0
05/04:00am 19.3 22.2 18.3 94 0.6 CALM 0 0 0 0 1011.8 - 0.0
05/03:30am 19.5 22.4 18.3 93 0.7 CALM 0 0 0 0 1011.8 - 0.0
05/03:00am 20.1 22.3 19.1 94 0.6 S 6 7 3 4 1011.7 1010.9 0.0
05/02:30am 20.3 22.4 19.3 94 0.6 SSW 7 9 4 5 1011.9 - 0.0
05/02:00am 20.3 22.5 19.5 95 0.5 S 7 9 4 5 1012.0 - 0.0
05/01:30am 20.2 21.9 19.4 95 0.5 S 9 13 5 7 1012.1 - 0.0
05/01:00am 19.7 22.4 18.7 94 0.6 SE 2 6 1 3 1012.4 - 0.0
05/12:30am 20.0 23.3 19.0 94 0.6 CALM 0 0 0 0 1012.5 - 0.0
05/12:00am 19.9 23.0 18.7 93 0.8 CALM 0 0 0 0 1012.7 1011.9 0.0
 
Date/Time
EST
Temp
°C
App
Temp
°C
Dew
Point
Rel
Hum
%
Delta-T
°C
Wind Press
QNH
hPa
Press
MSL
hPa
Rain
since 9 am
mm
Dir
 
Spd
km/h
Gust
km/h
Spd
kts
Gust
kts
04/11:30pm 20.2 23.5 19.0 93 0.8 CALM 0 0 0 0 1012.8 - 0.0
04/11:00pm 20.6 24.0 19.4 93 0.8 CALM 0 0 0 0 1012.8 - 0.0
04/10:30pm 20.6 23.5 19.1 91 1.0 NE 2 6 1 3 1012.8 - 0.0
04/10:00pm 21.1 23.7 19.2 89 1.2 ENE 4 7 2 4 1012.9 - 0.0
04/09:30pm 22.0 24.4 19.7 87 1.5 NE 6 7 3 4 1013.0 - 0.0
04/09:00pm 22.4 24.4 19.9 86 1.6 NNE 9 11 5 6 1012.8 1012.0 0.0
04/08:30pm 23.1 25.5 20.1 83 1.9 NNE 7 13 4 7 1012.5 - 0.0
04/08:00pm 23.5 25.5 20.0 81 2.3 NE 9 13 5 7 1012.1 - 0.0
04/07:30pm 23.9 25.5 20.0 79 2.5 NE 11 15 6 8 1011.8 - 0.0
04/07:00pm 24.4 26.4 19.9 76 2.9 NE 9 15 5 8 1011.5 - 0.0
04/06:30pm 25.0 26.2 20.0 74 3.3 NNE 13 20 7 11 1011.3 - 0.0
04/06:00pm 26.0 27.3 20.1 70 3.9 NNE 13 20 7 11 1010.8 1010.0 0.0

Other Formats:

Comma delimited format used in spreadsheet applications
http://www.bom.gov.au/fwo/IDQ60801/IDQ60801.94183.axf

JavaScript Object Notation format (JSON) in row-major order
http://www.bom.gov.au/fwo/IDQ60801/IDQ60801.94183.json